Time;durP1;ratioP1;P1;durP2;ratioP2;P2;SDS_P1;SDS_P2;PMS_P1;PMS_P2;Temp;Humidity;BMP_temperature;BMP_pressure;BME280_temperature;BME280_humidity;BME280_pressure;Samples;Min_cycle;Max_cycle;Signal;HPM_P1;HPM_P2
2023/12/18 00:01:29;;;;;;;1.70;1.40;;;5.10;98.20;;;;;;4983538;28;20484;-85
2023/12/18 00:04:02;;;;;;;1.63;1.30;;;5.10;98.20;;;;;;4999170;28;20475;-84
2023/12/18 00:06:29;;;;;;;1.60;1.30;;;5.00;98.20;;;;;;4984704;28;20539;-84
2023/12/18 00:08:59;;;;;;;1.63;1.40;;;4.90;98.20;;;;;;5000877;28;20930;-85
2023/12/18 00:11:26;;;;;;;1.60;1.30;;;4.90;98.20;;;;;;4977783;28;20567;-84
2023/12/18 00:13:53;;;;;;;1.60;1.37;;;4.80;98.20;;;;;;4990919;28;20517;-84
2023/12/18 00:16:20;;;;;;;1.70;1.30;;;4.80;98.20;;;;;;4980403;28;20492;-87
2023/12/18 00:18:51;;;;;;;1.67;1.40;;;4.70;98.20;;;;;;5001848;28;20516;-84
2023/12/18 00:21:20;;;;;;;1.70;1.40;;;4.70;98.20;;;;;;4986186;28;20556;-84
2023/12/18 00:23:47;;;;;;;1.70;1.50;;;4.70;98.20;;;;;;5005748;28;20470;-84
2023/12/18 00:26:14;;;;;;;4.63;4.30;;;4.60;98.20;;;;;;4984194;28;20493;-85
2023/12/18 00:28:41;;;;;;;1.70;1.43;;;4.60;98.20;;;;;;5009991;28;20500;-85
2023/12/18 00:31:08;;;;;;;1.63;1.40;;;4.50;98.20;;;;;;4989539;28;20725;-85
2023/12/18 00:33:34;;;;;;;1.67;1.30;;;4.50;98.20;;;;;;5002803;28;20497;-84
2023/12/18 00:36:04;;;;;;;1.70;1.40;;;4.50;98.20;;;;;;4982654;28;20976;-85
2023/12/18 00:38:31;;;;;;;1.70;1.40;;;4.40;98.20;;;;;;4994947;28;20520;-85
2023/12/18 00:40:58;;;;;;;1.70;1.33;;;4.40;98.20;;;;;;4976291;28;20465;-85
2023/12/18 00:43:25;;;;;;;1.70;1.40;;;4.40;98.20;;;;;;5002608;28;20502;-85
2023/12/18 00:45:52;;;;;;;1.60;1.30;;;4.30;98.20;;;;;;4984271;28;20462;-85
2023/12/18 00:48:19;;;;;;;1.60;1.40;;;4.30;98.20;;;;;;5008859;28;20734;-84
2023/12/18 00:50:46;;;;;;;1.70;1.50;;;4.20;98.20;;;;;;4996980;28;20548;-85
2023/12/18 00:53:16;;;;;;;1.70;1.40;;;4.20;98.20;;;;;;4974884;28;20536;-84
2023/12/18 00:55:43;;;;;;;1.70;1.40;;;4.10;98.20;;;;;;4996043;28;20839;-84
2023/12/18 00:58:10;;;;;;;1.70;1.40;;;4.10;98.20;;;;;;4996266;28;20484;-84
2023/12/18 01:00:37;;;;;;;1.70;1.40;;;4.10;98.20;;;;;;4992013;28;20939;-84
2023/12/18 01:03:05;;;;;;;1.63;1.40;;;4.00;98.20;;;;;;4997039;28;20503;-84
2023/12/18 01:05:32;;;;;;;1.70;1.43;;;4.10;98.20;;;;;;4985513;28;20988;-84
2023/12/18 01:08:00;;;;;;;1.70;1.50;;;4.10;98.20;;;;;;4996659;28;20480;-84
2023/12/18 01:10:28;;;;;;;1.63;1.40;;;4.00;98.20;;;;;;4987203;28;20468;-84
2023/12/18 01:12:55;;;;;;;1.60;1.40;;;4.00;98.20;;;;;;4997418;28;20985;-83
2023/12/18 01:15:22;;;;;;;1.70;1.40;;;4.00;98.20;;;;;;4984714;28;20539;-83
2023/12/18 01:17:48;;;;;;;1.63;1.30;;;4.00;98.20;;;;;;4994712;28;20482;-83
2023/12/18 01:20:15;;;;;;;1.67;1.40;;;3.90;98.20;;;;;;4990585;28;20469;-83
2023/12/18 01:22:42;;;;;;;1.70;1.60;;;3.90;98.20;;;;;;4993224;28;20874;-84
2023/12/18 01:25:09;;;;;;;1.63;1.40;;;3.90;98.20;;;;;;4986427;28;20837;-83
2023/12/18 01:27:37;;;;;;;1.63;1.40;;;3.90;98.20;;;;;;4990984;28;20583;-83
2023/12/18 01:30:09;;;;;;;1.67;1.43;;;3.90;98.20;;;;;;4989339;28;20454;-83
2023/12/18 01:32:36;;;;;;;1.70;1.40;;;3.90;98.20;;;;;;4989761;28;20492;-83
2023/12/18 01:35:02;;;;;;;1.67;1.30;;;3.80;98.20;;;;;;4990100;28;20465;-83
2023/12/18 01:37:29;;;;;;;1.67;1.40;;;3.80;98.20;;;;;;4982729;28;20482;-83
2023/12/18 01:39:57;;;;;;;1.63;1.30;;;3.80;98.20;;;;;;4987361;28;20499;-83
2023/12/18 01:42:24;;;;;;;1.67;1.40;;;3.80;98.20;;;;;;4986401;28;20489;-83
2023/12/18 01:44:52;;;;;;;1.67;1.40;;;3.80;98.20;;;;;;4989144;28;20463;-82
2023/12/18 01:47:20;;;;;;;1.70;1.40;;;3.80;98.20;;;;;;4983105;28;20476;-82
2023/12/18 01:49:46;;;;;;;1.70;1.60;;;3.80;98.20;;;;;;4988519;28;20481;-82
2023/12/18 01:52:14;;;;;;;1.67;1.40;;;3.70;98.20;;;;;;4984302;28;21034;-82
2023/12/18 01:54:40;;;;;;;1.67;1.50;;;3.70;98.20;;;;;;4981392;28;21153;-82
2023/12/18 01:57:08;;;;;;;1.70;1.40;;;3.70;98.20;;;;;;4986416;28;20855;-83
2023/12/18 01:59:35;;;;;;;1.70;1.40;;;3.60;98.20;;;;;;4988680;28;20517;-82
2023/12/18 02:02:04;;;;;;;1.70;1.40;;;3.60;98.20;;;;;;4983201;28;20476;-82
2023/12/18 02:04:31;;;;;;;1.67;1.40;;;3.60;98.20;;;;;;4993007;28;20467;-81
2023/12/18 02:07:02;;;;;;;1.70;1.40;;;3.60;98.20;;;;;;4986395;28;20484;-83
2023/12/18 02:09:29;;;;;;;1.63;1.40;;;3.50;98.20;;;;;;4996839;28;20851;-82
2023/12/18 02:11:55;;;;;;;1.67;1.40;;;3.50;98.20;;;;;;4979608;28;20480;-82
2023/12/18 02:14:22;;;;;;;1.60;1.40;;;3.50;98.20;;;;;;4994309;28;20457;-82
2023/12/18 02:16:49;;;;;;;1.63;1.40;;;3.50;98.20;;;;;;4988170;28;20472;-82
2023/12/18 02:19:25;;;;;;;1.70;1.40;;;3.40;98.20;;;;;;4999601;28;20874;-83
2023/12/18 02:21:52;;;;;;;1.70;1.40;;;3.40;98.20;;;;;;4976881;28;20486;-82
2023/12/18 02:24:20;;;;;;;1.70;1.50;;;3.40;98.20;;;;;;4992342;28;20487;-81
2023/12/18 02:26:48;;;;;;;1.70;1.57;;;3.40;98.20;;;;;;4976298;28;20491;-82
2023/12/18 02:29:15;;;;;;;1.70;1.50;;;3.30;98.20;;;;;;4989112;28;20500;-82
2023/12/18 02:31:43;;;;;;;1.70;1.40;;;3.30;98.20;;;;;;4978395;28;20498;-82
2023/12/18 02:34:10;;;;;;;1.70;1.40;;;3.30;98.20;;;;;;4993674;28;20479;-82
2023/12/18 02:36:36;;;;;;;1.70;1.50;;;3.20;98.20;;;;;;4977055;28;20868;-82
2023/12/18 02:39:03;;;;;;;1.70;1.50;;;3.20;98.20;;;;;;4996454;28;20921;-82
2023/12/18 02:41:31;;;;;;;1.60;1.40;;;3.10;98.20;;;;;;4987435;28;20904;-82
2023/12/18 02:43:58;;;;;;;1.67;1.40;;;3.10;98.20;;;;;;5001710;28;20453;-82
2023/12/18 02:46:25;;;;;;;1.70;1.50;;;3.10;98.20;;;;;;4984265;28;20495;-81
2023/12/18 02:48:52;;;;;;;1.70;1.50;;;3.00;98.20;;;;;;4999245;28;20477;-82
2023/12/18 02:51:19;;;;;;;1.63;1.40;;;3.00;98.20;;;;;;4980728;28;20480;-82
2023/12/18 02:53:45;;;;;;;1.63;1.40;;;3.00;98.20;;;;;;4998749;28;20468;-81
2023/12/18 02:56:13;;;;;;;1.70;1.50;;;3.00;98.20;;;;;;4975012;28;20512;-82
2023/12/18 02:58:42;;;;;;;1.70;1.50;;;3.00;98.20;;;;;;4990744;28;20493;-82
2023/12/18 03:01:08;;;;;;;1.70;1.40;;;3.00;98.20;;;;;;4967544;28;20492;-83
2023/12/18 03:03:35;;;;;;;1.70;1.40;;;3.00;98.20;;;;;;4997844;28;20475;-82
2023/12/18 03:06:02;;;;;;;1.63;1.40;;;3.00;98.20;;;;;;4969809;28;20468;-81
2023/12/18 03:08:29;;;;;;;1.70;1.50;;;2.90;98.20;;;;;;4993364;28;20494;-81
2023/12/18 03:10:55;;;;;;;1.70;1.50;;;2.90;98.20;;;;;;4968984;28;20470;-82
2023/12/18 03:13:22;;;;;;;1.63;1.40;;;2.90;98.20;;;;;;4999956;28;20461;-81
2023/12/18 03:15:50;;;;;;;1.70;1.50;;;2.80;98.20;;;;;;4971975;28;21047;-81
2023/12/18 03:18:17;;;;;;;1.70;1.40;;;2.80;98.20;;;;;;4994867;28;20485;-81
2023/12/18 03:20:44;;;;;;;1.70;1.50;;;2.80;98.20;;;;;;4979703;28;20493;-82
2023/12/18 03:23:10;;;;;;;1.70;1.40;;;2.80;98.20;;;;;;4988970;28;20486;-82
2023/12/18 03:25:37;;;;;;;1.70;1.40;;;2.80;98.20;;;;;;4978292;28;21103;-80
2023/12/18 03:28:04;;;;;;;1.70;1.50;;;2.70;98.20;;;;;;4987039;28;20485;-81
2023/12/18 03:30:31;;;;;;;1.63;1.43;;;2.70;98.20;;;;;;4981114;28;20548;-81
2023/12/18 03:33:00;;;;;;;1.70;1.40;;;2.70;98.20;;;;;;4987791;28;20481;-81
2023/12/18 03:35:27;;;;;;;1.70;1.60;;;2.70;98.20;;;;;;4977219;28;20477;-81
2023/12/18 03:37:53;;;;;;;1.80;1.70;;;2.70;98.20;;;;;;4986557;28;20481;-81
2023/12/18 03:40:20;;;;;;;1.70;1.50;;;2.60;98.20;;;;;;4979401;28;20489;-82
2023/12/18 03:42:47;;;;;;;1.70;1.50;;;2.60;98.20;;;;;;4989764;28;20487;-81
2023/12/18 03:45:14;;;;;;;1.70;1.40;;;2.60;98.20;;;;;;4980707;28;20493;-81
2023/12/18 03:47:41;;;;;;;1.70;1.50;;;2.60;98.20;;;;;;4993141;28;20482;-81
2023/12/18 03:50:10;;;;;;;1.70;1.50;;;2.60;98.20;;;;;;4981259;28;20468;-81
2023/12/18 03:52:37;;;;;;;1.70;1.50;;;2.60;98.20;;;;;;4987558;28;20488;-81
2023/12/18 03:55:04;;;;;;;1.70;1.50;;;2.60;98.20;;;;;;4982068;28;20994;-82
2023/12/18 03:57:31;;;;;;;1.70;1.60;;;2.60;98.20;;;;;;4980981;28;21135;-81
2023/12/18 03:59:58;;;;;;;1.70;1.57;;;2.60;98.20;;;;;;4982857;28;20486;-81
2023/12/18 04:02:25;;;;;;;1.70;1.50;;;2.60;98.20;;;;;;4986739;28;20495;-81
2023/12/18 04:04:54;;;;;;;1.70;1.50;;;2.60;98.20;;;;;;4986504;28;20508;-82
2023/12/18 04:07:22;;;;;;;1.70;1.50;;;2.70;98.20;;;;;;4987386;28;20479;-81
2023/12/18 04:09:49;;;;;;;1.70;1.50;;;2.70;98.20;;;;;;4986934;28;20483;-81
2023/12/18 04:12:16;;;;;;;1.70;1.40;;;2.70;98.20;;;;;;4983340;28;20553;-83
2023/12/18 04:14:43;;;;;;;1.67;1.40;;;2.70;98.20;;;;;;4987732;28;20467;-80
2023/12/18 04:17:10;;;;;;;1.67;1.50;;;2.70;98.20;;;;;;4984331;28;20493;-81
2023/12/18 04:19:37;;;;;;;1.70;1.50;;;2.70;98.20;;;;;;4985165;28;20868;-81
2023/12/18 04:22:04;;;;;;;1.67;1.40;;;2.70;98.20;;;;;;4982771;28;20487;-81
2023/12/18 04:24:32;;;;;;;1.67;1.40;;;2.70;98.20;;;;;;4983913;28;20483;-81
2023/12/18 04:26:59;;;;;;;1.70;1.60;;;2.70;98.20;;;;;;4974594;28;20481;-81
2023/12/18 04:29:26;;;;;;;1.70;1.50;;;2.70;98.20;;;;;;4984561;28;20486;-82
2023/12/18 04:31:57;;;;;;;1.70;1.50;;;2.70;98.20;;;;;;4976579;28;21298;-82
2023/12/18 04:34:24;;;;;;;1.70;1.40;;;2.70;98.20;;;;;;4984739;28;20961;-82
2023/12/18 04:36:50;;;;;;;1.70;1.40;;;2.70;98.20;;;;;;4985136;28;20567;-81
2023/12/18 04:39:17;;;;;;;1.70;1.60;;;2.70;98.20;;;;;;4993551;28;20494;-82
2023/12/18 04:41:45;;;;;;;1.70;1.40;;;2.80;98.20;;;;;;4977906;28;20877;-81
2023/12/18 04:44:12;;;;;;;1.70;1.50;;;2.70;98.20;;;;;;4991030;28;20500;-81
2023/12/18 04:46:40;;;;;;;1.70;1.40;;;2.80;98.20;;;;;;4978925;28;20484;-81
2023/12/18 04:49:08;;;;;;;1.70;1.50;;;2.80;98.20;;;;;;4989226;28;20504;-82
2023/12/18 04:51:35;;;;;;;1.70;1.50;;;2.80;98.20;;;;;;4979738;28;20539;-81
2023/12/18 04:54:02;;;;;;;1.70;1.50;;;2.70;98.20;;;;;;4985911;28;20468;-82
2023/12/18 04:56:38;;;;;;;1.70;1.50;;;2.70;98.20;;;;;;4978612;28;20487;-82
2023/12/18 04:59:06;;;;;;;1.70;1.50;;;2.70;98.20;;;;;;4984941;28;20487;-82
2023/12/18 05:01:33;;;;;;;1.63;1.40;;;2.70;98.20;;;;;;4977725;28;20485;-81
2023/12/18 05:04:00;;;;;;;1.70;1.43;;;2.70;98.20;;;;;;4991469;28;20461;-81
2023/12/18 05:06:28;;;;;;;1.80;1.70;;;2.70;98.20;;;;;;4976829;28;20548;-82
2023/12/18 05:08:55;;;;;;;1.70;1.50;;;2.70;98.20;;;;;;4996019;28;20564;-81
2023/12/18 05:11:31;;;;;;;1.63;1.40;;;2.70;98.20;;;;;;4975295;28;20469;-81
2023/12/18 05:13:58;;;;;;;1.70;1.60;;;2.60;98.20;;;;;;4987602;28;21053;-80
2023/12/18 05:16:26;;;;;;;1.90;1.70;;;2.60;98.20;;;;;;4974464;28;20488;-82
2023/12/18 05:18:53;;;;;;;1.67;1.40;;;2.60;98.20;;;;;;4993703;28;20496;-80
2023/12/18 05:21:20;;;;;;;1.70;1.53;;;2.60;98.20;;;;;;4975788;28;20477;-80
2023/12/18 05:23:49;;;;;;;1.70;1.50;;;2.50;98.20;;;;;;4994844;28;20469;-80
2023/12/18 05:26:16;;;;;;;1.70;1.53;;;2.50;98.20;;;;;;4978339;28;20496;-82
2023/12/18 05:28:43;;;;;;;1.70;1.50;;;2.40;98.20;;;;;;4993075;28;20484;-82
2023/12/18 05:31:10;;;;;;;1.70;1.50;;;2.40;98.20;;;;;;4974939;28;20904;-81
2023/12/18 05:33:39;;;;;;;1.70;1.50;;;2.40;98.20;;;;;;4993147;28;20462;-81
2023/12/18 05:36:07;;;;;;;1.70;1.40;;;2.30;98.20;;;;;;4978909;28;20916;-81
2023/12/18 05:38:34;;;;;;;1.70;1.50;;;2.30;98.20;;;;;;4990618;28;20485;-82
2023/12/18 05:41:00;;;;;;;1.70;1.50;;;2.30;98.20;;;;;;4973829;28;20485;-81
2023/12/18 05:43:27;;;;;;;1.70;1.50;;;2.20;98.20;;;;;;4996154;28;20474;-81
2023/12/18 05:45:54;;;;;;;1.70;1.43;;;2.20;98.20;;;;;;4973064;28;20469;-81
2023/12/18 05:48:20;;;;;;;1.63;1.40;;;2.20;98.20;;;;;;4995846;28;20492;-80
2023/12/18 05:50:50;;;;;;;1.70;1.50;;;2.10;98.20;;;;;;4974921;28;20481;-80
2023/12/18 05:53:16;;;;;;;1.70;1.40;;;2.10;98.20;;;;;;4985719;28;21111;-80
2023/12/18 05:55:43;;;;;;;1.70;1.60;;;2.10;98.20;;;;;;4981512;28;20469;-81
2023/12/18 05:58:10;;;;;;;1.70;1.60;;;2.00;98.20;;;;;;4986906;28;20763;-81
2023/12/18 06:00:38;;;;;;;1.70;1.50;;;2.00;98.20;;;;;;4981580;28;20490;-80
2023/12/18 06:03:05;;;;;;;1.70;1.60;;;2.00;98.20;;;;;;4985298;28;20524;-80
2023/12/18 06:05:32;;;;;;;1.70;1.50;;;2.00;98.20;;;;;;4981636;28;20484;-82
2023/12/18 06:08:00;;;;;;;1.70;1.60;;;2.00;98.20;;;;;;4977873;28;20832;-80
2023/12/18 06:10:27;;;;;;;1.77;1.67;;;2.00;98.20;;;;;;4980949;28;20462;-80
2023/12/18 06:12:54;;;;;;;1.70;1.60;;;1.90;98.20;;;;;;4981468;28;20480;-81
2023/12/18 06:15:20;;;;;;;1.80;1.70;;;1.90;98.20;;;;;;4983381;28;20475;-80
2023/12/18 06:17:48;;;;;;;1.70;1.60;;;1.90;98.20;;;;;;4984042;28;20490;-81
2023/12/18 06:20:15;;;;;;;1.70;1.50;;;1.90;98.20;;;;;;4982910;28;20581;-80
2023/12/18 06:22:41;;;;;;;1.70;1.50;;;1.80;98.20;;;;;;4982841;28;20475;-81
2023/12/18 06:25:10;;;;;;;1.70;1.50;;;1.80;98.20;;;;;;4977024;28;20859;-80
2023/12/18 06:27:37;;;;;;;1.70;1.50;;;1.80;98.20;;;;;;4984981;28;20501;-82
2023/12/18 06:30:05;;;;;;;1.70;1.60;;;1.80;98.20;;;;;;4977561;28;20524;-81
2023/12/18 06:32:34;;;;;;;1.70;1.50;;;1.70;98.20;;;;;;4973906;28;20493;-81
2023/12/18 06:35:02;;;;;;;1.70;1.57;;;1.70;98.20;;;;;;4975333;28;20476;-80
2023/12/18 06:37:30;;;;;;;1.70;1.50;;;1.70;98.20;;;;;;4978752;28;20493;-81
2023/12/18 06:39:57;;;;;;;1.70;1.60;;;1.70;98.20;;;;;;4983627;28;20607;-80
2023/12/18 06:42:28;;;;;;;1.70;1.50;;;1.70;98.20;;;;;;4976707;28;20926;-81
2023/12/18 06:45:06;;;;;;;2.10;1.90;;;1.70;98.20;;;;;;4965549;28;20485;-81
2023/12/18 06:47:33;;;;;;;1.70;1.60;;;1.70;98.20;;;;;;4977090;28;20477;-80
2023/12/18 06:50:00;;;;;;;1.70;1.57;;;1.70;98.20;;;;;;4973957;28;20745;-80
2023/12/18 06:52:33;;;;;;;1.70;1.50;;;1.70;98.20;;;;;;4978946;28;20487;-80
2023/12/18 06:55:01;;;;;;;1.70;1.50;;;1.80;98.20;;;;;;4982118;28;20531;-81
2023/12/18 06:57:30;;;;;;;1.67;1.47;;;1.70;98.20;;;;;;4981449;28;20542;-80
2023/12/18 06:59:57;;;;;;;1.70;1.50;;;1.70;98.20;;;;;;4985430;28;20991;-79
2023/12/18 07:02:45;;;;;;;1.70;1.60;;;1.70;98.20;;;;;;4981453;28;20485;-79
2023/12/18 07:07:56;;;;;;;1.70;1.50;;;1.70;98.20;;;;;;4971199;28;20498;-80
2023/12/18 07:10:24;;;;;;;1.70;1.50;;;1.70;98.20;;;;;;4982325;28;20460;-79
2023/12/18 07:12:52;;;;;;;1.90;1.70;;;1.70;98.20;;;;;;4981360;28;21025;-80
2023/12/18 07:15:20;;;;;;;1.70;1.60;;;1.70;98.20;;;;;;4975879;28;20851;-80
2023/12/18 07:17:48;;;;;;;1.67;1.50;;;1.70;98.20;;;;;;4981408;28;20523;-80
2023/12/18 07:20:24;;;;;;;1.70;1.60;;;1.70;98.20;;;;;;4980636;28;20525;-81
2023/12/18 07:22:52;;;;;;;1.70;1.50;;;1.70;98.20;;;;;;4985014;28;20499;-81
2023/12/18 07:25:29;;;;;;;2.20;2.00;;;1.70;98.20;;;;;;4982447;28;20528;-81
2023/12/18 07:28:10;;;;;;;1.70;1.50;;;1.70;98.20;;;;;;4969773;28;21003;-82
2023/12/18 07:30:37;;;;;;;1.70;1.50;;;1.60;98.20;;;;;;4978966;28;20474;-81
2023/12/18 07:33:05;;;;;;;1.70;1.50;;;1.60;98.20;;;;;;4982739;28;20508;-79
2023/12/18 07:35:33;;;;;;;1.77;1.67;;;1.60;98.20;;;;;;4981511;28;20474;-79
2023/12/18 07:38:00;;;;;;;1.70;1.60;;;1.60;98.20;;;;;;4968377;28;20567;-80
2023/12/18 07:40:28;;;;;;;1.80;1.70;;;1.60;98.20;;;;;;4968441;28;20497;-79
2023/12/18 07:42:57;;;;;;;1.70;1.60;;;1.60;98.20;;;;;;4975394;28;20492;-79
2023/12/18 07:45:24;;;;;;;1.70;1.50;;;1.60;98.20;;;;;;4970503;28;20465;-81
2023/12/18 07:47:55;;;;;;;1.70;1.50;;;1.60;98.20;;;;;;4979557;28;20481;-78
2023/12/18 07:50:22;;;;;;;1.70;1.60;;;1.60;98.20;;;;;;4976768;28;20907;-80
2023/12/18 07:52:57;;;;;;;1.70;1.60;;;1.70;98.20;;;;;;4973165;28;20484;-80
2023/12/18 07:55:25;;;;;;;1.70;1.50;;;1.70;98.20;;;;;;4970263;28;20458;-80
2023/12/18 07:57:52;;;;;;;1.70;1.50;;;1.70;98.20;;;;;;4975716;28;22438;-80
2023/12/18 08:00:21;;;;;;;1.70;1.60;;;1.80;98.20;;;;;;4965581;28;20490;-80
2023/12/18 08:02:49;;;;;;;1.70;1.60;;;1.80;98.20;;;;;;4985984;28;20479;-81
2023/12/18 08:05:16;;;;;;;2.40;2.20;;;1.90;98.20;;;;;;4974795;28;21021;-81
2023/12/18 08:07:44;;;;;;;1.70;1.50;;;1.90;98.20;;;;;;4979402;28;20495;-81
2023/12/18 08:10:12;;;;;;;1.70;1.40;;;2.00;98.20;;;;;;4973942;28;20472;-80
2023/12/18 08:12:42;;;;;;;1.70;1.50;;;2.10;98.20;;;;;;4980228;28;20875;-82
2023/12/18 08:15:10;;;;;;;1.67;1.50;;;2.10;98.20;;;;;;4972551;28;20871;-82
2023/12/18 08:17:42;;;;;;;1.70;1.50;;;2.20;98.20;;;;;;4975801;28;20485;-82
2023/12/18 08:20:15;;;;;;;1.63;1.50;;;2.20;98.20;;;;;;4973323;28;20470;-83
2023/12/18 08:22:43;;;;;;;1.70;1.50;;;2.30;98.20;;;;;;4975024;28;20497;-85
2023/12/18 08:25:28;;;;;;;;;;;;;;;;;;;;;
2023/12/18 08:28:22;;;;;;;1.70;1.50;;;2.40;98.20;;;;;;5034338;23;21113;-83
2023/12/18 08:30:56;;;;;;;1.67;1.50;;;2.40;98.20;;;;;;4955786;28;20973;-87
2023/12/18 08:33:34;;;;;;;1.70;1.50;;;2.50;98.20;;;;;;4977989;28;20473;-84
2023/12/18 08:36:04;;;;;;;1.70;1.50;;;2.60;98.20;;;;;;4954710;28;20481;-83
2023/12/18 08:38:32;;;;;;;1.70;1.50;;;2.60;98.20;;;;;;4965677;28;20493;-82
2023/12/18 08:40:59;;;;;;;1.70;1.50;;;2.60;98.20;;;;;;4958763;28;20497;-81
2023/12/18 08:43:27;;;;;;;1.70;1.40;;;2.70;98.20;;;;;;4970380;28;20463;-81
2023/12/18 08:45:54;;;;;;;4.57;4.27;;;2.70;98.20;;;;;;4957514;28;20501;-81
2023/12/18 08:48:21;;;;;;;1.67;1.40;;;2.70;98.20;;;;;;4971176;28;20486;-80
2023/12/18 08:50:50;;;;;;;1.70;1.50;;;2.70;98.20;;;;;;4960751;28;20493;-79
2023/12/18 08:53:17;;;;;;;1.70;1.40;;;2.80;98.20;;;;;;4972062;28;20473;-80
2023/12/18 08:55:45;;;;;;;1.63;1.40;;;2.80;98.20;;;;;;4966152;28;20510;-80
2023/12/18 08:58:20;;;;;;;1.70;1.50;;;2.80;98.20;;;;;;4973253;28;20482;-82
2023/12/18 09:00:48;;;;;;;1.67;1.40;;;2.80;98.20;;;;;;4965245;28;20995;-82
2023/12/18 09:03:15;;;;;;;1.70;1.43;;;2.90;98.20;;;;;;4972130;28;20564;-80
2023/12/18 09:05:43;;;;;;;1.63;1.40;;;3.00;98.20;;;;;;4974485;28;20562;-80
2023/12/18 09:08:13;;;;;;;1.70;1.50;;;3.00;98.20;;;;;;4970277;28;20926;-80
2023/12/18 09:10:41;;;;;;;1.67;1.40;;;3.10;98.20;;;;;;4966532;28;21060;-79
2023/12/18 09:13:08;;;;;;;1.70;1.50;;;3.20;98.20;;;;;;4971918;28;20483;-80
2023/12/18 09:15:36;;;;;;;1.70;1.40;;;3.20;98.20;;;;;;4968717;28;20476;-79
2023/12/18 09:18:03;;;;;;;1.70;1.40;;;3.10;98.20;;;;;;4970386;28;20485;-80
2023/12/18 09:23:21;;;;;;;1.67;1.40;;;3.20;98.20;;;;;;4954263;28;20544;-85
2023/12/18 09:25:50;;;;;;;1.70;1.40;;;3.20;98.20;;;;;;4956425;28;20473;-82
2023/12/18 09:28:17;;;;;;;1.70;1.50;;;3.30;98.20;;;;;;4978549;28;20862;-81
2023/12/18 09:30:45;;;;;;;1.70;1.40;;;3.30;98.20;;;;;;4964348;28;20524;-80
2023/12/18 09:33:12;;;;;;;1.60;1.30;;;3.40;98.20;;;;;;4954508;28;21047;-79
2023/12/18 09:35:40;;;;;;;4.10;2.47;;;3.40;98.20;;;;;;4967854;28;20480;-79
2023/12/18 09:38:08;;;;;;;1.70;1.50;;;3.50;98.20;;;;;;4969146;28;20578;-78
2023/12/18 09:40:36;;;;;;;1.67;1.40;;;3.60;98.20;;;;;;4969667;28;20466;-79
2023/12/18 09:43:05;;;;;;;1.70;1.50;;;3.70;98.20;;;;;;4965228;28;21060;-78
2023/12/18 09:45:32;;;;;;;1.70;1.30;;;3.80;98.20;;;;;;4971732;28;20976;-79
2023/12/18 09:48:00;;;;;;;1.70;1.50;;;3.90;98.20;;;;;;4963118;28;20490;-80
2023/12/18 09:50:28;;;;;;;1.60;1.30;;;3.90;98.20;;;;;;4965420;28;20472;-80
2023/12/18 09:53:08;;;;;;;1.63;1.30;;;4.00;98.20;;;;;;4959964;28;20491;-80
2023/12/18 09:55:38;;;;;;;2.27;2.07;;;4.10;98.20;;;;;;4969924;28;20850;-80
2023/12/18 09:58:06;;;;;;;1.67;1.30;;;4.20;98.20;;;;;;4958058;28;20561;-80
2023/12/18 10:00:34;;;;;;;3.13;2.93;;;4.30;98.20;;;;;;4967740;28;20480;-80
2023/12/18 10:03:05;;;;;;;1.70;1.30;;;4.40;98.20;;;;;;4961418;28;20492;-81
2023/12/18 10:05:35;;;;;;;1.63;1.30;;;4.50;98.20;;;;;;4966998;28;20573;-80
2023/12/18 10:08:03;;;;;;;1.70;1.40;;;4.50;98.20;;;;;;4958000;28;20490;-80
2023/12/18 10:10:30;;;;;;;1.67;1.30;;;4.60;98.20;;;;;;4969863;28;20957;-81
2023/12/18 10:13:03;;;;;;;1.70;1.50;;;4.60;98.20;;;;;;4974576;28;21089;-80
2023/12/18 10:15:32;;;;;;;1.70;1.40;;;4.70;98.20;;;;;;4968804;28;20481;-80
2023/12/18 10:18:00;;;;;;;17.00;9.60;;;4.70;98.20;;;;;;4968665;28;20489;-81
2023/12/18 10:20:29;;;;;;;1.63;1.30;;;4.80;98.20;;;;;;4979235;28;20476;-80
2023/12/18 10:22:56;;;;;;;1.60;1.30;;;4.80;98.20;;;;;;4959547;28;20482;-82
2023/12/18 10:25:24;;;;;;;1.70;1.40;;;4.90;98.20;;;;;;4966908;28;20734;-82
2023/12/18 10:27:55;;;;;;;1.60;1.40;;;5.00;98.20;;;;;;4961623;28;21065;-81
2023/12/18 10:30:28;;;;;;;1.70;1.40;;;5.10;98.20;;;;;;4969163;28;20976;-82
2023/12/18 10:32:56;;;;;;;1.67;1.33;;;5.10;98.20;;;;;;4970959;28;20496;-82
2023/12/18 10:35:24;;;;;;;1.60;1.30;;;5.20;98.20;;;;;;4969601;28;20478;-81
2023/12/18 10:37:54;;;;;;;1.60;1.30;;;5.30;98.20;;;;;;4959509;28;20490;-81
2023/12/18 10:40:26;;;;;;;1.70;1.40;;;5.40;98.20;;;;;;4970412;28;20468;-82
2023/12/18 10:43:05;;;;;;;1.60;1.30;;;5.40;98.20;;;;;;4961011;28;20493;-81
2023/12/18 10:45:34;;;;;;;1.67;1.30;;;5.50;98.20;;;;;;4970619;28;20553;-82
2023/12/18 10:48:05;;;;;;;1.60;1.30;;;5.50;98.20;;;;;;4965750;28;20941;-81
2023/12/18 10:50:35;;;;;;;2.13;1.93;;;5.50;98.20;;;;;;4968527;28;20501;-81
2023/12/18 10:53:04;;;;;;;1.60;1.30;;;5.60;98.20;;;;;;4972973;28;20468;-81
2023/12/18 10:55:32;;;;;;;1.60;1.23;;;5.60;98.20;;;;;;4970586;28;20568;-82
2023/12/18 10:58:03;;;;;;;1.70;1.30;;;5.60;98.20;;;;;;4972308;28;20493;-81
2023/12/18 11:00:32;;;;;;;1.70;1.40;;;5.60;98.20;;;;;;4970096;28;20847;-81
2023/12/18 11:03:03;;;;;;;1.70;1.40;;;5.70;98.20;;;;;;4984380;28;20489;-81
2023/12/18 11:05:32;;;;;;;1.63;1.30;;;5.70;98.20;;;;;;4969334;28;20476;-82
2023/12/18 11:08:00;;;;;;;1.70;1.30;;;5.70;98.20;;;;;;4971738;28;20485;-82
2023/12/18 11:10:28;;;;;;;1.70;1.30;;;5.80;98.20;;;;;;4968388;28;20477;-82
2023/12/18 11:13:05;;;;;;;2.03;1.83;;;5.90;98.20;;;;;;4964513;28;20508;-81
2023/12/18 11:15:40;;;;;;;1.70;1.60;;;5.90;98.20;;;;;;4969493;28;20473;-81
2023/12/18 11:18:22;;;;;;;1.90;1.70;;;5.90;98.20;;;;;;4964744;28;20919;-82
2023/12/18 11:20:50;;;;;;;1.70;1.37;;;5.90;98.20;;;;;;4959639;28;20468;-81
2023/12/18 11:23:18;;;;;;;1.63;1.20;;;5.90;98.20;;;;;;4968626;28;21048;-81
2023/12/18 11:25:50;;;;;;;1.70;1.30;;;5.90;98.20;;;;;;4968533;28;20482;-80
2023/12/18 11:28:18;;;;;;;1.70;1.30;;;5.90;98.20;;;;;;4955743;28;20500;-80
2023/12/18 11:30:46;;;;;;;1.63;1.27;;;5.80;98.20;;;;;;4969641;28;20631;-81
2023/12/18 11:33:16;;;;;;;1.67;1.30;;;5.80;98.20;;;;;;4958715;28;20474;-83
2023/12/18 11:35:45;;;;;;;1.60;1.30;;;5.80;98.20;;;;;;4967573;28;20474;-82
2023/12/18 11:38:14;;;;;;;1.70;1.50;;;5.80;98.20;;;;;;4955872;28;20861;-82
2023/12/18 11:40:43;;;;;;;1.97;1.77;;;5.70;98.20;;;;;;4963912;28;20470;-82
2023/12/18 11:43:12;;;;;;;1.70;1.40;;;5.80;98.20;;;;;;4972738;28;20482;-81
2023/12/18 11:45:42;;;;;;;2.60;2.40;;;5.80;98.20;;;;;;4970011;28;20536;-81
2023/12/18 11:48:14;;;;;;;1.67;1.30;;;5.80;98.20;;;;;;4966809;28;20490;-81
2023/12/18 11:50:43;;;;;;;1.70;1.50;;;5.80;98.20;;;;;;4969796;28;20817;-81
2023/12/18 11:53:31;;;;;;;1.60;1.30;;;5.90;98.20;;;;;;4974560;28;20478;-81
2023/12/18 11:56:14;;;;;;;1.63;1.20;;;6.00;98.20;;;;;;4961745;28;20490;-81
2023/12/18 11:58:42;;;;;;;1.70;1.40;;;6.20;98.20;;;;;;4978270;28;21174;-81
2023/12/18 12:01:10;;;;;;;1.60;1.20;;;6.30;98.20;;;;;;4961280;28;20564;-81
2023/12/18 12:03:48;;;;;;;1.67;1.30;;;6.40;98.20;;;;;;4980592;28;20581;-82
2023/12/18 12:06:17;;;;;;;1.70;1.40;;;6.60;98.20;;;;;;4966008;28;20988;-82
2023/12/18 12:08:48;;;;;;;2.27;2.07;;;6.70;98.20;;;;;;4978240;28;20494;-82
2023/12/18 12:11:16;;;;;;;1.60;1.20;;;6.80;98.20;;;;;;4961046;28;20543;-82
2023/12/18 12:13:45;;;;;;;1.67;1.30;;;6.90;98.20;;;;;;4969679;28;20501;-81
2023/12/18 12:16:17;;;;;;;3.50;3.00;;;7.00;98.20;;;;;;4958004;28;20572;-81
2023/12/18 12:18:50;;;;;;;1.60;1.20;;;7.10;98.20;;;;;;4978362;28;20485;-81
2023/12/18 12:21:23;;;;;;;2.63;2.43;;;7.10;98.20;;;;;;4958374;28;20732;-82
2023/12/18 12:23:51;;;;;;;1.60;1.20;;;7.20;98.20;;;;;;4968034;28;20855;-81
2023/12/18 12:26:20;;;;;;;1.60;1.20;;;7.20;98.20;;;;;;4974414;28;20476;-82
2023/12/18 12:28:48;;;;;;;1.70;1.37;;;7.20;98.20;;;;;;4967672;28;20913;-81
2023/12/18 12:31:17;;;;;;;1.60;1.20;;;7.30;98.20;;;;;;4957821;28;20534;-80
2023/12/18 12:33:46;;;;;;;1.60;1.30;;;7.30;98.20;;;;;;4977595;28;21582;-80
2023/12/18 12:36:20;;;;;;;1.60;1.20;;;7.30;98.20;;;;;;4961425;28;21361;-80
2023/12/18 12:38:49;;;;;;;1.70;1.30;;;7.30;98.20;;;;;;4974857;28;20492;-80
2023/12/18 12:41:16;;;;;;;1.60;1.20;;;7.30;98.20;;;;;;4958773;28;21166;-81
2023/12/18 12:43:45;;;;;;;1.60;1.20;;;7.30;98.20;;;;;;4969835;28;20470;-81
2023/12/18 12:46:13;;;;;;;1.60;1.20;;;7.20;98.20;;;;;;4955186;28;20528;-81
2023/12/18 12:48:40;;;;;;;1.63;1.20;;;7.20;98.20;;;;;;4963609;28;20529;-80
2023/12/18 12:51:08;;;;;;;1.63;1.23;;;7.20;98.20;;;;;;4955352;28;20763;-80
2023/12/18 12:53:36;;;;;;;1.60;1.20;;;7.20;98.20;;;;;;4956986;28;20481;-80
2023/12/18 12:56:07;;;;;;;1.60;1.20;;;7.20;98.20;;;;;;4955233;28;20474;-79
2023/12/18 12:58:36;;;;;;;1.60;1.20;;;7.20;98.20;;;;;;4961400;28;20486;-81
2023/12/18 13:01:06;;;;;;;1.67;1.30;;;7.20;98.20;;;;;;4960146;28;20471;-81
2023/12/18 13:03:34;;;;;;;1.67;1.30;;;7.20;98.20;;;;;;4961579;28;20489;-81
2023/12/18 13:06:01;;;;;;;1.70;1.10;;;7.30;98.20;;;;;;4954506;28;20708;-81
2023/12/18 13:08:28;;;;;;;1.60;1.20;;;7.30;98.20;;;;;;4963379;28;20564;-81
2023/12/18 13:10:56;;;;;;;1.67;1.30;;;7.30;98.20;;;;;;4956313;28;20469;-80